createdAt,value
2019-03-29T00:01:41.175Z,73.40
2019-03-29T00:04:09.945Z,74.30
2019-03-29T00:06:39.094Z,74.70
2019-03-29T00:09:08.166Z,77.00
2019-03-29T00:11:36.943Z,79.10
2019-03-29T00:14:06.087Z,80.30
2019-03-29T00:16:34.898Z,79.80
2019-03-29T00:19:03.746Z,78.10
2019-03-29T00:21:32.799Z,77.70
2019-03-29T00:24:07.087Z,75.90
2019-03-29T00:26:32.127Z,77.50
2019-03-29T00:29:00.897Z,78.50
2019-03-29T00:31:29.977Z,79.10
2019-03-29T00:33:58.849Z,78.10
2019-03-29T00:36:27.627Z,78.10
2019-03-29T00:38:56.439Z,79.20
2019-03-29T00:41:25.331Z,79.10
2019-03-29T00:43:54.182Z,78.90
2019-03-29T00:46:23.050Z,78.10
2019-03-29T00:48:51.822Z,77.70
2019-03-29T00:51:20.590Z,77.40
2019-03-29T00:53:49.400Z,78.30
2019-03-29T00:56:18.239Z,78.30
2019-03-29T00:58:47.015Z,79.30
2019-03-29T01:01:15.905Z,79.60
2019-03-29T01:03:44.938Z,80.20
2019-03-29T01:06:13.714Z,79.60
2019-03-29T01:08:42.508Z,78.30
2019-03-29T01:11:11.348Z,76.80
2019-03-29T01:13:40.126Z,76.40
2019-03-29T01:16:09.305Z,75.50
2019-03-29T01:18:38.324Z,75.10
2019-03-29T01:21:07.793Z,74.80
2019-03-29T01:23:36.628Z,74.30
2019-03-29T01:26:06.153Z,74.80
2019-03-29T01:28:34.921Z,75.80
2019-03-29T01:31:03.728Z,76.40
2019-03-29T01:33:32.504Z,76.90
2019-03-29T01:36:02.037Z,77.10
2019-03-29T01:38:31.028Z,77.30
2019-03-29T01:41:00.997Z,77.90
2019-03-29T01:43:29.911Z,77.90
2019-03-29T01:45:58.714Z,79.00
2019-03-29T01:48:27.567Z,77.90
2019-03-29T01:50:56.405Z,78.30
2019-03-29T01:53:25.565Z,78.90
2019-03-29T01:55:54.411Z,79.00
2019-03-29T01:58:23.175Z,79.00
2019-03-29T02:00:51.974Z,79.40
2019-03-29T02:03:20.826Z,78.70
2019-03-29T02:05:49.596Z,78.40
2019-03-29T02:08:18.701Z,78.90
2019-03-29T02:10:48.915Z,78.70
2019-03-29T02:13:17.925Z,79.00
2019-03-29T02:15:47.209Z,78.60
2019-03-29T02:18:17.476Z,78.20
2019-03-29T02:20:46.546Z,78.10
2019-03-29T02:23:15.335Z,78.30
2019-03-29T02:25:44.436Z,78.70
2019-03-29T02:28:13.196Z,80.20
2019-03-29T02:30:42.317Z,81.10
2019-03-29T02:33:11.098Z,81.60
2019-03-29T02:35:39.860Z,81.20
2019-03-29T02:38:09.002Z,81.60
2019-03-29T02:40:37.857Z,82.00
2019-03-29T02:43:06.985Z,81.70
2019-03-29T02:45:36.197Z,81.40
2019-03-29T02:48:05.039Z,81.20
2019-03-29T02:50:33.864Z,81.10
2019-03-29T02:53:02.751Z,81.50
2019-03-29T02:55:31.960Z,81.10
2019-03-29T02:58:00.721Z,80.80
2019-03-29T03:00:29.527Z,81.00
2019-03-29T03:02:58.372Z,80.60
2019-03-29T03:05:27.226Z,80.10
2019-03-29T03:07:56.317Z,80.20
2019-03-29T03:10:25.104Z,79.90
2019-03-29T03:12:53.881Z,80.00
2019-03-29T03:15:22.670Z,79.70
2019-03-29T03:17:51.793Z,79.00
2019-03-29T03:20:20.636Z,78.10
2019-03-29T03:22:49.520Z,77.30
2019-03-29T03:25:18.365Z,77.40
2019-03-29T03:27:47.141Z,77.10
2019-03-29T03:30:15.970Z,78.00
2019-03-29T03:32:44.761Z,79.30
2019-03-29T03:35:13.597Z,78.60
2019-03-29T03:37:42.471Z,77.90
2019-03-29T03:40:11.604Z,77.20
2019-03-29T03:42:40.375Z,77.40
2019-03-29T03:45:09.228Z,76.80
2019-03-29T03:47:39.619Z,76.00
2019-03-29T03:50:14.651Z,75.50
2019-03-29T03:52:43.431Z,75.90
2019-03-29T03:55:12.636Z,75.70
2019-03-29T03:57:41.441Z,76.30
2019-03-29T04:00:10.209Z,77.30
2019-03-29T04:02:38.982Z,79.20
2019-03-29T04:05:07.801Z,78.40
2019-03-29T04:07:36.576Z,78.20
2019-03-29T04:10:08.033Z,77.30
2019-03-29T04:12:37.146Z,77.50
2019-03-29T04:15:06.494Z,77.10
2019-03-29T04:17:35.339Z,77.60
2019-03-29T04:20:05.766Z,77.80
2019-03-29T04:22:34.860Z,78.40
2019-03-29T04:25:05.540Z,78.70
2019-03-29T04:27:34.357Z,79.70
2019-03-29T04:30:03.791Z,80.10
2019-03-29T04:32:32.884Z,80.60
2019-03-29T04:35:01.766Z,81.40
2019-03-29T04:37:30.545Z,82.40
2019-03-29T04:40:07.592Z,81.90
2019-03-29T04:42:29.866Z,83.10
2019-03-29T04:45:00.006Z,83.20
2019-03-29T04:47:29.423Z,83.20
2019-03-29T04:49:58.226Z,83.50
2019-03-29T04:52:27.002Z,83.50
2019-03-29T04:54:55.778Z,83.80
2019-03-29T04:57:24.573Z,82.90
2019-03-29T04:59:53.665Z,82.20
2019-03-29T05:02:22.434Z,82.50
2019-03-29T05:04:51.253Z,81.70
2019-03-29T05:07:20.449Z,80.10
2019-03-29T05:09:49.229Z,79.10
2019-03-29T05:12:18.022Z,78.60
2019-03-29T05:14:46.856Z,79.80
2019-03-29T05:17:15.624Z,80.80
2019-03-29T05:19:44.717Z,81.20
2019-03-29T05:22:13.770Z,81.60
2019-03-29T05:24:42.895Z,79.30
2019-03-29T05:27:11.813Z,78.00
2019-03-29T05:29:40.597Z,77.60
2019-03-29T05:32:09.477Z,76.80
2019-03-29T05:34:38.362Z,77.50
2019-03-29T05:37:07.140Z,78.50
2019-03-29T05:39:35.917Z,78.50
2019-03-29T05:42:04.818Z,79.10
2019-03-29T05:44:33.652Z,78.80
2019-03-29T05:47:02.453Z,80.00
2019-03-29T05:49:31.335Z,82.00
2019-03-29T05:52:00.232Z,82.70
2019-03-29T05:54:29.074Z,82.60
2019-03-29T05:56:57.914Z,81.30
2019-03-29T05:59:26.687Z,80.30
2019-03-29T06:01:55.457Z,80.00
2019-03-29T06:04:24.253Z,80.30
2019-03-29T06:06:53.453Z,80.20
2019-03-29T06:09:22.546Z,80.40
2019-03-29T06:11:51.339Z,80.70
2019-03-29T06:14:20.102Z,81.30
2019-03-29T06:16:48.863Z,81.90
2019-03-29T06:19:18.002Z,82.30
2019-03-29T06:21:46.761Z,82.10
2019-03-29T06:24:15.529Z,81.10
2019-03-29T06:26:44.344Z,80.10
2019-03-29T06:29:13.199Z,80.30
2019-03-29T06:31:42.033Z,79.90
2019-03-29T06:34:10.915Z,79.70
2019-03-29T06:36:39.685Z,78.00
2019-03-29T06:39:08.738Z,77.50
2019-03-29T06:41:37.604Z,75.40
2019-03-29T06:44:06.731Z,70.70
2019-03-29T06:46:35.585Z,67.60
2019-03-29T06:49:04.478Z,65.80
2019-03-29T06:51:33.616Z,61.50
2019-03-29T06:54:02.390Z,58.70
2019-03-29T06:56:31.295Z,56.70
2019-03-29T06:59:00.391Z,55.90
2019-03-29T07:01:29.213Z,53.90
2019-03-29T07:03:58.381Z,51.80
2019-03-29T07:06:30.362Z,51.20
2019-03-29T07:08:57.675Z,50.10
2019-03-29T07:11:26.550Z,48.00
2019-03-29T07:13:57.822Z,46.40
2019-03-29T07:16:25.807Z,45.10
2019-03-29T07:18:54.617Z,45.10
2019-03-29T07:21:23.689Z,44.50
2019-03-29T07:23:52.491Z,44.90
2019-03-29T07:26:21.388Z,44.50
2019-03-29T07:28:50.482Z,44.80
2019-03-29T07:31:19.255Z,44.50
2019-03-29T07:33:48.056Z,43.70
2019-03-29T07:36:16.852Z,42.70
2019-03-29T07:38:45.638Z,42.60
2019-03-29T07:41:14.520Z,42.50
2019-03-29T07:43:43.300Z,43.30
2019-03-29T07:46:12.139Z,46.60
2019-03-29T07:48:40.951Z,48.90
2019-03-29T07:51:09.748Z,51.10
2019-03-29T07:53:38.600Z,53.70
2019-03-29T07:56:07.399Z,55.10
2019-03-29T07:58:36.185Z,52.00
2019-03-29T08:01:04.971Z,48.40
2019-03-29T08:03:33.769Z,47.00
2019-03-29T08:06:02.546Z,43.80
2019-03-29T08:08:33.371Z,42.30
2019-03-29T08:11:01.814Z,41.90
2019-03-29T08:13:30.670Z,39.00
2019-03-29T08:15:59.529Z,39.90
2019-03-29T08:18:28.320Z,37.80
2019-03-29T08:20:57.095Z,35.40
2019-03-29T08:23:28.617Z,35.00
2019-03-29T08:25:56.393Z,33.50
2019-03-29T08:28:25.176Z,34.70
2019-03-29T08:30:54.026Z,34.30
2019-03-29T08:33:22.862Z,34.70
2019-03-29T08:35:51.712Z,35.10
2019-03-29T08:38:20.504Z,34.70
2019-03-29T08:40:49.382Z,32.90
2019-03-29T08:43:18.178Z,32.60
2019-03-29T08:45:47.014Z,33.00
2019-03-29T08:48:15.818Z,32.70
2019-03-29T08:50:44.666Z,34.30
2019-03-29T08:53:13.426Z,31.50
2019-03-29T08:55:45.959Z,33.50
2019-03-29T08:58:13.118Z,33.90
2019-03-29T09:00:41.897Z,32.20
2019-03-29T09:03:11.052Z,31.20
2019-03-29T09:05:40.642Z,31.80
2019-03-29T09:08:09.484Z,30.90
2019-03-29T09:10:38.341Z,30.40
2019-03-29T09:13:07.427Z,30.00
2019-03-29T09:15:36.210Z,30.40
2019-03-29T09:18:05.011Z,30.20
2019-03-29T09:20:34.629Z,29.10
2019-03-29T09:23:03.730Z,27.60
2019-03-29T09:25:32.624Z,27.20
2019-03-29T09:28:01.488Z,27.20
2019-03-29T09:30:30.348Z,27.00
2019-03-29T09:32:59.218Z,26.50
2019-03-29T09:35:28.013Z,26.50
2019-03-29T09:37:56.908Z,27.30
2019-03-29T09:40:25.770Z,29.00
2019-03-29T09:43:06.675Z,30.10
2019-03-29T09:45:25.086Z,31.20
2019-03-29T09:47:55.937Z,30.60
2019-03-29T09:50:24.668Z,30.10
2019-03-29T09:52:53.504Z,29.10
2019-03-29T09:55:22.326Z,27.50
2019-03-29T09:57:51.178Z,27.30
2019-03-29T10:00:23.317Z,27.40
2019-03-29T10:02:50.520Z,25.70
2019-03-29T10:05:20.185Z,25.40
2019-03-29T10:07:49.695Z,24.70
2019-03-29T10:10:18.509Z,25.20
2019-03-29T10:12:47.383Z,25.00
2019-03-29T10:15:16.164Z,25.50
2019-03-29T10:17:45.059Z,26.90
2019-03-29T10:20:13.858Z,26.50
2019-03-29T10:22:42.708Z,26.80
2019-03-29T10:25:19.034Z,26.50
2019-03-29T10:27:42.086Z,25.50
2019-03-29T10:30:10.929Z,25.50
2019-03-29T10:32:39.794Z,24.70
2019-03-29T10:35:08.596Z,23.90
2019-03-29T10:37:38.130Z,24.20
2019-03-29T10:40:07.004Z,24.60
2019-03-29T10:42:35.804Z,24.10
2019-03-29T10:45:05.152Z,25.40
2019-03-29T10:47:43.209Z,24.10
2019-03-29T10:50:05.933Z,22.70
2019-03-29T10:52:34.776Z,22.00
2019-03-29T10:55:04.138Z,22.00
2019-03-29T10:57:32.921Z,22.90
2019-03-29T11:00:01.709Z,24.20
2019-03-29T11:02:30.523Z,23.10
2019-03-29T11:04:59.297Z,22.40
2019-03-29T11:07:28.552Z,22.40
2019-03-29T11:09:57.432Z,22.40
2019-03-29T11:12:26.552Z,22.40
2019-03-29T11:14:55.348Z,22.90
2019-03-29T11:17:24.161Z,22.10
2019-03-29T11:19:52.950Z,21.70
2019-03-29T11:22:21.723Z,22.10
2019-03-29T11:24:50.533Z,20.70
2019-03-29T11:27:22.303Z,21.50
2019-03-29T11:29:49.798Z,21.60
2019-03-29T11:32:18.631Z,22.20
2019-03-29T11:34:47.399Z,21.90
2019-03-29T11:37:16.186Z,22.80
2019-03-29T11:39:44.997Z,23.00
2019-03-29T11:42:13.795Z,23.10
2019-03-29T11:44:42.642Z,24.60
2019-03-29T11:47:11.512Z,24.10
2019-03-29T11:49:40.664Z,24.30
2019-03-29T11:52:09.504Z,23.60
2019-03-29T11:54:38.583Z,24.40
2019-03-29T11:57:07.430Z,23.20
2019-03-29T11:59:36.218Z,24.00
2019-03-29T12:02:05.103Z,24.80
2019-03-29T12:04:33.885Z,24.50
2019-03-29T12:07:03.638Z,25.40
2019-03-29T12:09:34.474Z,26.80
2019-03-29T12:12:03.319Z,25.80
2019-03-29T12:14:32.180Z,26.90
2019-03-29T12:17:01.061Z,26.70
2019-03-29T12:19:29.829Z,26.60
2019-03-29T12:21:58.611Z,27.80
2019-03-29T12:24:27.423Z,26.30
2019-03-29T12:26:56.384Z,28.00
2019-03-29T12:29:25.229Z,26.20
2019-03-29T12:31:54.025Z,25.20
2019-03-29T12:34:22.886Z,25.20
2019-03-29T12:36:51.668Z,25.10
2019-03-29T12:39:20.455Z,24.70
2019-03-29T12:41:49.232Z,25.50
2019-03-29T12:44:18.016Z,25.10
2019-03-29T12:46:46.825Z,24.60
2019-03-29T12:49:15.610Z,24.00
2019-03-29T12:51:46.616Z,24.50
2019-03-29T12:54:14.946Z,24.50
2019-03-29T12:56:43.728Z,25.70
2019-03-29T12:59:12.585Z,25.40
2019-03-29T13:01:41.455Z,26.30
2019-03-29T13:04:10.304Z,26.60
2019-03-29T13:06:39.158Z,27.10
2019-03-29T13:09:07.990Z,24.60
2019-03-29T13:11:36.906Z,26.30
2019-03-29T13:14:10.402Z,27.60
2019-03-29T13:16:36.220Z,26.20
2019-03-29T13:19:05.082Z,27.70
2019-03-29T13:21:33.930Z,27.60
2019-03-29T13:24:02.757Z,27.30
2019-03-29T13:26:31.599Z,27.70
2019-03-29T13:29:00.361Z,27.80
2019-03-29T13:31:29.177Z,27.30
2019-03-29T13:33:58.012Z,26.10
2019-03-29T13:36:26.792Z,26.10
2019-03-29T13:38:55.605Z,25.90
2019-03-29T13:41:24.379Z,27.30
2019-03-29T13:43:53.158Z,28.20
2019-03-29T13:46:21.947Z,27.70
2019-03-29T13:48:50.734Z,28.80
2019-03-29T13:51:19.591Z,28.20
2019-03-29T13:53:48.392Z,28.20
2019-03-29T13:56:17.543Z,26.40
2019-03-29T13:58:46.325Z,26.40
2019-03-29T14:01:15.436Z,26.80
2019-03-29T14:03:44.298Z,26.10
2019-03-29T14:06:13.493Z,27.10
2019-03-29T14:08:42.352Z,28.40
2019-03-29T14:11:11.213Z,27.60
2019-03-29T14:13:40.055Z,27.80
2019-03-29T14:16:09.181Z,28.40
2019-03-29T14:18:37.949Z,27.80
2019-03-29T14:21:06.737Z,28.60
2019-03-29T14:23:35.601Z,29.50
2019-03-29T14:26:04.649Z,27.60
2019-03-29T14:28:33.442Z,28.00
2019-03-29T14:31:02.260Z,29.60
2019-03-29T14:33:33.923Z,29.30
2019-03-29T14:36:02.707Z,29.10
2019-03-29T14:38:31.902Z,29.90
2019-03-29T14:41:00.676Z,28.50
2019-03-29T14:43:29.463Z,29.20
2019-03-29T14:45:58.261Z,29.00
2019-03-29T14:48:27.048Z,29.00
2019-03-29T14:50:55.884Z,28.60
2019-03-29T14:53:25.019Z,29.20
2019-03-29T14:55:53.810Z,29.40
2019-03-29T14:58:22.581Z,28.70
2019-03-29T15:00:51.658Z,29.60
2019-03-29T15:03:20.428Z,29.80
2019-03-29T15:05:49.242Z,29.60
2019-03-29T15:08:18.113Z,30.20
2019-03-29T15:10:46.902Z,30.20
2019-03-29T15:13:15.758Z,31.30
2019-03-29T15:15:44.626Z,31.10
2019-03-29T15:18:13.418Z,30.00
2019-03-29T15:20:53.305Z,30.90
2019-03-29T15:23:13.025Z,30.60
2019-03-29T15:25:41.795Z,30.60
2019-03-29T15:28:10.938Z,30.80
2019-03-29T15:30:39.734Z,31.70
2019-03-29T15:33:08.837Z,31.20
2019-03-29T15:35:37.658Z,30.50
2019-03-29T15:38:06.509Z,30.20
2019-03-29T15:40:36.571Z,30.80
2019-03-29T15:43:05.371Z,30.60
2019-03-29T15:45:34.202Z,32.90
2019-03-29T15:48:02.987Z,32.70
2019-03-29T15:50:31.841Z,32.50
2019-03-29T15:53:00.648Z,33.00
2019-03-29T15:55:29.418Z,31.90
2019-03-29T15:57:58.203Z,31.80
2019-03-29T16:00:27.027Z,32.50
2019-03-29T16:02:56.158Z,31.90
2019-03-29T16:05:24.935Z,33.20
2019-03-29T16:07:53.743Z,34.40
2019-03-29T16:10:22.518Z,32.90
2019-03-29T16:12:51.360Z,33.30
2019-03-29T16:15:33.270Z,33.50
2019-03-29T16:17:50.948Z,34.00
2019-03-29T16:20:19.740Z,34.10
2019-03-29T16:22:48.632Z,33.80
2019-03-29T16:25:17.403Z,34.10
2019-03-29T16:27:46.183Z,34.50
2019-03-29T16:30:15.004Z,34.40
2019-03-29T16:32:43.843Z,34.70
2019-03-29T16:35:12.623Z,35.60
2019-03-29T16:37:41.408Z,36.00
2019-03-29T16:40:10.176Z,36.90
2019-03-29T16:42:38.958Z,36.60
2019-03-29T16:45:07.828Z,37.60
2019-03-29T16:47:36.619Z,36.50
2019-03-29T16:50:07.046Z,36.10
2019-03-29T16:52:35.862Z,36.70
2019-03-29T16:55:13.058Z,36.60
2019-03-29T16:57:36.945Z,37.00
2019-03-29T17:00:12.118Z,39.50
2019-03-29T17:02:39.606Z,38.80
2019-03-29T17:05:08.448Z,39.40
2019-03-29T17:07:37.264Z,38.50
2019-03-29T17:10:06.634Z,39.30
2019-03-29T17:12:35.419Z,39.90
2019-03-29T17:15:04.764Z,39.90
2019-03-29T17:17:33.711Z,40.00
2019-03-29T17:20:02.553Z,40.50
2019-03-29T17:22:31.384Z,40.20
2019-03-29T17:25:00.357Z,40.70
2019-03-29T17:27:29.364Z,41.90
2019-03-29T17:29:58.438Z,42.50
2019-03-29T17:32:27.964Z,42.30
2019-03-29T17:34:56.801Z,42.10
2019-03-29T17:37:25.608Z,42.40
2019-03-29T17:39:54.446Z,42.90
2019-03-29T17:42:23.221Z,43.10
2019-03-29T17:44:52.009Z,44.00
2019-03-29T17:47:20.775Z,44.30
2019-03-29T17:49:50.195Z,45.40
2019-03-29T17:52:19.069Z,45.30
2019-03-29T17:54:47.860Z,46.20
2019-03-29T17:57:16.636Z,45.80
2019-03-29T17:59:45.500Z,45.80
2019-03-29T18:02:14.341Z,46.30
2019-03-29T18:04:43.172Z,47.50
2019-03-29T18:07:11.962Z,48.80
2019-03-29T18:09:40.761Z,51.40
2019-03-29T18:12:11.324Z,49.20
2019-03-29T18:14:40.125Z,48.90
2019-03-29T18:17:08.912Z,49.50
2019-03-29T18:19:37.836Z,49.80
2019-03-29T18:22:06.746Z,51.20
2019-03-29T18:24:35.535Z,50.90
2019-03-29T18:27:04.318Z,50.10
2019-03-29T18:29:33.189Z,49.40
2019-03-29T18:32:02.059Z,50.50
2019-03-29T18:34:30.882Z,52.30
2019-03-29T18:36:59.741Z,52.60
2019-03-29T18:39:28.562Z,52.80
2019-03-29T18:41:57.652Z,53.30
2019-03-29T18:44:26.442Z,52.90
2019-03-29T18:46:55.229Z,53.50
2019-03-29T18:49:24.010Z,54.60
2019-03-29T18:51:52.884Z,54.30
2019-03-29T18:54:21.672Z,54.30
2019-03-29T18:56:50.506Z,54.40
2019-03-29T18:59:19.348Z,54.50
2019-03-29T19:01:48.194Z,54.90
2019-03-29T19:04:16.970Z,56.00
2019-03-29T19:06:45.766Z,56.80
2019-03-29T19:09:14.554Z,56.60
2019-03-29T19:11:43.348Z,56.90
2019-03-29T19:14:12.221Z,56.30
2019-03-29T19:16:40.990Z,56.40
2019-03-29T19:19:10.662Z,56.30
2019-03-29T19:21:39.666Z,56.50
2019-03-29T19:24:08.512Z,56.80
2019-03-29T19:26:37.270Z,56.80
2019-03-29T19:29:06.073Z,59.20
2019-03-29T19:31:34.868Z,58.40
2019-03-29T19:34:03.703Z,59.40
2019-03-29T19:36:32.579Z,58.90
2019-03-29T19:39:01.349Z,57.40
2019-03-29T19:41:30.119Z,57.50
2019-03-29T19:43:59.248Z,58.20
2019-03-29T19:46:28.087Z,57.90
2019-03-29T19:48:56.847Z,57.40
2019-03-29T19:51:25.652Z,57.80
2019-03-29T19:54:06.814Z,59.30
2019-03-29T19:56:24.886Z,59.30
2019-03-29T19:58:54.075Z,61.10
2019-03-29T20:01:22.895Z,61.20
2019-03-29T20:03:51.735Z,60.60
2019-03-29T20:06:20.638Z,59.10
2019-03-29T20:08:49.388Z,59.40
2019-03-29T20:11:18.163Z,59.80
2019-03-29T20:13:46.984Z,60.90
2019-03-29T20:16:15.762Z,61.40
2019-03-29T20:18:44.543Z,61.50
2019-03-29T20:21:14.986Z,59.50
2019-03-29T20:23:43.766Z,59.90
2019-03-29T20:26:12.560Z,59.60
2019-03-29T20:28:41.446Z,59.70
2019-03-29T20:31:10.649Z,59.00
2019-03-29T20:33:39.427Z,59.10
2019-03-29T20:36:08.546Z,59.60
2019-03-29T20:38:37.386Z,59.90
2019-03-29T20:41:07.081Z,59.90
2019-03-29T20:43:35.958Z,59.90
2019-03-29T20:46:04.804Z,60.10
2019-03-29T20:48:33.649Z,63.00
2019-03-29T20:51:02.444Z,61.20
2019-03-29T20:53:31.294Z,60.80
2019-03-29T20:56:00.085Z,63.20
2019-03-29T20:58:28.971Z,64.10
2019-03-29T21:00:57.797Z,63.60
2019-03-29T21:03:26.647Z,64.00
2019-03-29T21:05:55.790Z,64.60
2019-03-29T21:08:24.583Z,63.90
2019-03-29T21:10:56.086Z,64.70
2019-03-29T21:13:23.928Z,64.10
2019-03-29T21:15:52.692Z,64.40
2019-03-29T21:18:21.471Z,65.00
2019-03-29T21:20:50.262Z,65.70
2019-03-29T21:23:19.021Z,65.60
2019-03-29T21:25:47.785Z,66.40
2019-03-29T21:28:16.588Z,66.90
2019-03-29T21:30:45.613Z,67.20
2019-03-29T21:33:14.688Z,66.30
2019-03-29T21:35:43.489Z,65.80
2019-03-29T21:38:12.259Z,66.80
2019-03-29T21:40:41.036Z,68.00
2019-03-29T21:43:10.260Z,68.60
2019-03-29T21:45:39.033Z,67.80
2019-03-29T21:48:27.363Z,68.00
2019-03-29T21:50:38.312Z,67.70
2019-03-29T21:53:07.172Z,67.70
2019-03-29T21:55:35.947Z,67.80
2019-03-29T21:58:04.818Z,67.60
2019-03-29T22:00:33.606Z,67.80
2019-03-29T22:03:02.379Z,68.60
2019-03-29T22:05:31.195Z,69.20
2019-03-29T22:08:00.045Z,68.80
2019-03-29T22:10:28.826Z,69.20
2019-03-29T22:12:57.626Z,70.10
2019-03-29T22:15:26.398Z,71.20
2019-03-29T22:17:55.482Z,72.20
2019-03-29T22:20:24.679Z,72.50
2019-03-29T22:22:53.640Z,71.40
2019-03-29T22:25:22.508Z,70.90
2019-03-29T22:27:51.296Z,72.10
2019-03-29T22:30:20.147Z,72.20
2019-03-29T22:32:49.007Z,73.30
2019-03-29T22:35:18.086Z,72.60
2019-03-29T22:37:47.265Z,72.20
2019-03-29T22:40:16.767Z,72.70
2019-03-29T22:42:45.570Z,72.20
2019-03-29T22:45:14.357Z,72.50
2019-03-29T22:47:43.205Z,72.20
2019-03-29T22:50:12.018Z,71.70
2019-03-29T22:52:40.794Z,71.30
2019-03-29T22:55:09.730Z,71.60
2019-03-29T22:57:38.886Z,72.30
2019-03-29T23:00:16.732Z,72.40
2019-03-29T23:02:45.535Z,72.80
2019-03-29T23:05:14.329Z,73.10
2019-03-29T23:07:43.120Z,73.10
2019-03-29T23:10:11.999Z,73.50
2019-03-29T23:12:40.762Z,74.00
2019-03-29T23:15:09.824Z,74.20
2019-03-29T23:17:38.630Z,75.00
2019-03-29T23:20:07.401Z,74.50
2019-03-29T23:22:36.510Z,73.60
2019-03-29T23:25:05.537Z,73.40
2019-03-29T23:27:34.736Z,73.30
2019-03-29T23:30:04.473Z,73.50
2019-03-29T23:32:33.270Z,73.50
2019-03-29T23:35:02.058Z,72.90
2019-03-29T23:37:32.530Z,73.70
2019-03-29T23:40:01.396Z,73.80
2019-03-29T23:42:30.163Z,73.60
2019-03-29T23:44:58.915Z,73.60
2019-03-29T23:47:27.716Z,74.20
2019-03-29T23:49:56.487Z,74.30
2019-03-29T23:52:25.265Z,73.70
2019-03-29T23:54:54.079Z,74.00
2019-03-29T23:57:22.921Z,74.20
2019-03-29T23:59:51.681Z,75.60
